Time;durP1;ratioP1;P1;durP2;ratioP2;P2;SDS_P1;SDS_P2;PMS_P1;PMS_P2;Temp;Humidity;BMP_temperature;BMP_pressure;BME280_temperature;BME280_humidity;BME280_pressure;Samples;Min_cycle;Max_cycle;Signal;HPM_P1;HPM_P2
2023/12/31 00:01:14;;;;;;;5.38;2.47;;;10.20;99.90;;;;;;4950332;28;20032;-73
2023/12/31 00:03:40;;;;;;;3.88;2.30;;;10.20;99.90;;;;;;4951539;28;20046;-73
2023/12/31 00:06:06;;;;;;;5.25;2.83;;;10.20;99.90;;;;;;4951011;28;20165;-73
2023/12/31 00:08:31;;;;;;;4.68;2.50;;;10.20;99.90;;;;;;4950595;28;20099;-73
2023/12/31 00:10:57;;;;;;;4.90;2.33;;;10.20;99.90;;;;;;4951049;28;20027;-73
2023/12/31 00:13:22;;;;;;;5.05;2.55;;;10.20;99.90;;;;;;4950717;28;20391;-73
2023/12/31 00:15:48;;;;;;;4.55;2.08;;;10.20;99.90;;;;;;4948014;28;20380;-73
2023/12/31 00:18:13;;;;;;;4.10;2.40;;;10.20;99.90;;;;;;4951089;28;20023;-73
2023/12/31 00:20:39;;;;;;;6.60;2.53;;;10.20;99.90;;;;;;4943069;28;20592;-73
2023/12/31 00:23:05;;;;;;;5.70;2.20;;;10.20;99.90;;;;;;4951408;28;20477;-73
2023/12/31 00:25:30;;;;;;;4.57;2.05;;;10.20;99.90;;;;;;4937785;28;20396;-73
2023/12/31 00:27:56;;;;;;;3.45;2.05;;;10.20;99.90;;;;;;4950693;29;20082;-73
2023/12/31 00:30:21;;;;;;;5.28;2.35;;;10.20;99.90;;;;;;4951323;28;20030;-73
2023/12/31 00:32:47;;;;;;;3.35;1.92;;;10.20;99.90;;;;;;4949916;28;20435;-73
2023/12/31 00:35:13;;;;;;;5.32;1.90;;;10.20;99.90;;;;;;4950653;29;20098;-73
2023/12/31 00:37:39;;;;;;;3.42;1.80;;;10.20;99.90;;;;;;4949918;28;20368;-73
2023/12/31 00:40:06;;;;;;;4.88;1.80;;;10.20;99.90;;;;;;4950792;28;20085;-73
2023/12/31 00:42:32;;;;;;;8.48;1.80;;;10.20;99.90;;;;;;4944678;28;20030;-73
2023/12/31 00:44:57;;;;;;;4.47;2.00;;;10.10;99.90;;;;;;4950307;28;20031;-73
2023/12/31 00:47:23;;;;;;;6.70;2.03;;;10.10;99.90;;;;;;4948930;28;20406;-73
2023/12/31 00:49:49;;;;;;;2.95;1.52;;;10.10;99.90;;;;;;5013771;28;20027;-73
2023/12/31 00:52:14;;;;;;;3.92;1.90;;;10.20;99.90;;;;;;4945592;28;20477;-73
2023/12/31 00:54:40;;;;;;;2.40;1.80;;;10.10;99.90;;;;;;4949949;28;20102;-73
2023/12/31 00:57:05;;;;;;;3.00;1.70;;;10.10;99.90;;;;;;4950417;28;20084;-73
2023/12/31 00:59:31;;;;;;;4.05;1.65;;;10.10;99.90;;;;;;4939096;28;20035;-73
2023/12/31 01:01:57;;;;;;;5.15;1.67;;;10.10;99.90;;;;;;4950263;28;20023;-73
2023/12/31 01:04:22;;;;;;;4.00;1.70;;;10.10;99.90;;;;;;4944677;28;20390;-73
2023/12/31 01:06:48;;;;;;;3.90;1.55;;;10.10;99.90;;;;;;4949595;28;20086;-73
2023/12/31 01:09:13;;;;;;;4.90;1.85;;;10.10;99.90;;;;;;4944466;28;20027;-73
2023/12/31 01:11:39;;;;;;;3.33;1.50;;;10.10;99.90;;;;;;4949910;28;20523;-73
2023/12/31 01:14:04;;;;;;;2.35;1.33;;;10.10;99.90;;;;;;4945257;28;20024;-73
2023/12/31 01:16:30;;;;;;;4.85;1.40;;;10.10;99.90;;;;;;4939635;28;20055;-73
2023/12/31 01:18:55;;;;;;;4.75;1.45;;;10.10;99.90;;;;;;4950041;28;20090;-73
2023/12/31 01:21:22;;;;;;;3.05;1.40;;;10.10;99.90;;;;;;4948217;28;20464;-73
2023/12/31 01:23:47;;;;;;;2.17;1.40;;;10.10;99.90;;;;;;4949163;28;20511;-73
2023/12/31 01:26:14;;;;;;;2.47;1.48;;;10.10;99.90;;;;;;4945087;28;20035;-73
2023/12/31 01:28:39;;;;;;;4.03;1.30;;;10.10;99.90;;;;;;4945107;29;20019;-73
2023/12/31 01:31:05;;;;;;;5.50;1.77;;;10.10;99.90;;;;;;4938759;28;20389;-73
2023/12/31 01:33:30;;;;;;;3.63;1.65;;;10.10;99.90;;;;;;4949170;28;20039;-73
2023/12/31 01:35:56;;;;;;;3.53;1.60;;;10.10;99.90;;;;;;4948096;28;20043;-73
2023/12/31 01:38:21;;;;;;;5.90;1.50;;;10.10;99.90;;;;;;4944974;28;20097;-73
2023/12/31 01:40:54;;;;;;;3.17;1.33;;;10.10;99.90;;;;;;4948868;28;20027;-73
2023/12/31 01:43:20;;;;;;;6.40;1.77;;;10.10;99.90;;;;;;4949027;28;20026;-73
2023/12/31 01:45:46;;;;;;;3.83;1.60;;;10.10;99.90;;;;;;4949845;28;20015;-73
2023/12/31 01:48:12;;;;;;;4.45;1.70;;;10.10;99.90;;;;;;4949791;28;20077;-73
2023/12/31 01:50:38;;;;;;;3.67;1.65;;;10.00;99.90;;;;;;4939565;28;20043;-73
2023/12/31 01:53:05;;;;;;;3.00;1.45;;;10.00;99.90;;;;;;4947106;28;20057;-73
2023/12/31 01:55:31;;;;;;;2.85;1.63;;;10.00;99.90;;;;;;4949269;28;20043;-73
2023/12/31 01:57:56;;;;;;;4.00;1.70;;;10.00;99.90;;;;;;4948188;28;20062;-73
2023/12/31 02:00:22;;;;;;;3.55;1.60;;;10.00;99.90;;;;;;4942043;28;20020;-73
2023/12/31 02:02:49;;;;;;;3.75;1.70;;;10.00;99.90;;;;;;4947836;28;20560;-73
2023/12/31 02:05:15;;;;;;;4.03;1.88;;;10.00;99.90;;;;;;4948443;28;20466;-73
2023/12/31 02:07:41;;;;;;;4.38;1.50;;;10.00;99.90;;;;;;4949247;28;20031;-73
2023/12/31 02:10:07;;;;;;;2.70;1.38;;;10.00;99.90;;;;;;4934681;28;20037;-73
2023/12/31 02:12:33;;;;;;;6.47;1.67;;;10.00;99.90;;;;;;4939857;28;20026;-73
2023/12/31 02:14:59;;;;;;;5.75;1.50;;;10.00;99.90;;;;;;4944290;28;20391;-73
2023/12/31 02:17:24;;;;;;;7.05;1.75;;;10.00;99.90;;;;;;4949079;28;20047;-73
2023/12/31 02:19:50;;;;;;;3.92;1.55;;;10.00;99.90;;;;;;4948755;28;20027;-73
2023/12/31 02:22:15;;;;;;;5.38;1.60;;;10.00;99.90;;;;;;4947680;28;20453;-73
2023/12/31 02:24:48;;;;;;;5.38;1.60;;;10.00;99.90;;;;;;4944587;28;20031;-73
2023/12/31 02:27:14;;;;;;;4.53;1.45;;;10.00;99.90;;;;;;4947301;28;20016;-73
2023/12/31 02:29:40;;;;;;;3.55;1.50;;;10.00;99.90;;;;;;4948652;28;20034;-73
2023/12/31 02:32:06;;;;;;;2.22;1.60;;;10.00;99.90;;;;;;4948951;29;20126;-73
2023/12/31 02:34:32;;;;;;;3.08;1.55;;;10.00;99.90;;;;;;4942251;28;20476;-73
2023/12/31 02:36:57;;;;;;;4.50;1.80;;;10.00;99.90;;;;;;4948973;28;20024;-73
2023/12/31 02:39:24;;;;;;;2.22;1.60;;;10.00;99.90;;;;;;4943061;28;20449;-73
2023/12/31 02:41:50;;;;;;;2.78;1.63;;;10.00;99.90;;;;;;4937038;29;20186;-73
2023/12/31 02:44:15;;;;;;;2.88;1.50;;;10.00;99.90;;;;;;4948625;28;20096;-73
2023/12/31 02:46:41;;;;;;;3.10;1.58;;;10.00;99.90;;;;;;4948678;28;20030;-73
2023/12/31 02:49:08;;;;;;;3.20;1.80;;;10.00;99.90;;;;;;4948868;28;20480;-73
2023/12/31 02:51:34;;;;;;;3.97;1.80;;;10.00;99.90;;;;;;4943558;28;20019;-73
2023/12/31 02:54:00;;;;;;;4.78;1.60;;;10.00;99.90;;;;;;4949200;28;20153;-73
2023/12/31 02:56:26;;;;;;;2.47;1.70;;;10.00;99.90;;;;;;4948897;28;20460;-73
2023/12/31 02:58:52;;;;;;;5.63;1.80;;;9.90;99.90;;;;;;4948795;28;20028;-73
2023/12/31 03:01:17;;;;;;;5.00;1.50;;;9.90;99.90;;;;;;4943156;28;20030;-73
2023/12/31 03:03:43;;;;;;;5.72;1.48;;;9.90;99.90;;;;;;4937785;28;20480;-73
2023/12/31 03:06:08;;;;;;;4.40;1.65;;;9.90;99.90;;;;;;5024004;28;20055;-73
2023/12/31 03:08:34;;;;;;;3.53;2.08;;;9.90;99.90;;;;;;4942850;28;20031;-73
2023/12/31 03:10:59;;;;;;;3.35;1.70;;;9.90;99.90;;;;;;4936178;28;20417;-73
2023/12/31 03:13:25;;;;;;;5.90;1.73;;;9.80;99.90;;;;;;4952664;29;20020;-73
2023/12/31 03:15:51;;;;;;;5.20;1.80;;;9.80;99.90;;;;;;4946694;28;20558;-73
2023/12/31 03:18:17;;;;;;;5.30;1.98;;;9.80;99.90;;;;;;4936069;28;20043;-73
2023/12/31 03:20:42;;;;;;;4.35;1.80;;;9.80;99.90;;;;;;4948532;28;20041;-73
2023/12/31 03:23:08;;;;;;;5.13;2.08;;;9.70;99.90;;;;;;4952152;28;20015;-73
2023/12/31 03:25:34;;;;;;;5.43;1.70;;;9.70;99.90;;;;;;4952167;28;20023;-73
2023/12/31 03:27:59;;;;;;;4.72;1.80;;;9.70;99.90;;;;;;4951732;28;20023;-73
2023/12/31 03:30:25;;;;;;;2.50;1.67;;;9.70;99.90;;;;;;4946785;29;20517;-72
2023/12/31 03:32:50;;;;;;;4.63;2.13;;;9.70;99.90;;;;;;4945313;29;20060;-73
2023/12/31 03:35:16;;;;;;;7.30;2.20;;;9.60;99.90;;;;;;4946149;28;20023;-73
2023/12/31 03:37:46;;;;;;;1.80;1.50;;;9.70;99.90;;;;;;4939214;28;20445;-73
2023/12/31 03:40:12;;;;;;;3.72;1.83;;;9.60;99.90;;;;;;4941203;28;20389;-73
2023/12/31 03:42:38;;;;;;;3.60;1.90;;;9.60;99.90;;;;;;4939069;28;20144;-73
2023/12/31 03:45:04;;;;;;;3.33;2.15;;;9.60;99.90;;;;;;4951327;28;20170;-73
2023/12/31 03:47:30;;;;;;;4.72;2.00;;;9.60;99.90;;;;;;4946291;28;20020;-73
2023/12/31 03:49:55;;;;;;;5.13;2.00;;;9.60;99.90;;;;;;4951439;29;20042;-73
2023/12/31 03:52:21;;;;;;;2.38;1.67;;;9.60;99.90;;;;;;4947685;28;20015;-73
2023/12/31 03:54:47;;;;;;;5.47;1.85;;;9.60;99.90;;;;;;4942938;28;20618;-73
2023/12/31 03:57:13;;;;;;;5.15;2.00;;;9.60;99.90;;;;;;4948611;29;20024;-73
2023/12/31 03:59:38;;;;;;;3.65;2.20;;;9.60;99.90;;;;;;4949905;28;20110;-73
2023/12/31 04:02:04;;;;;;;4.65;2.13;;;9.60;99.90;;;;;;4951563;28;20479;-73
2023/12/31 04:04:29;;;;;;;4.60;2.13;;;9.60;99.90;;;;;;4951168;28;20054;-73
2023/12/31 04:06:55;;;;;;;3.75;2.67;;;9.60;99.90;;;;;;4950960;28;20031;-73
2023/12/31 04:09:20;;;;;;;7.32;2.65;;;9.60;99.90;;;;;;4942417;29;20023;-73
2023/12/31 04:11:46;;;;;;;5.55;3.10;;;9.60;99.90;;;;;;4939078;28;20024;-73
2023/12/31 04:14:12;;;;;;;6.03;3.10;;;9.60;99.90;;;;;;4935468;28;20046;-73
2023/12/31 04:16:37;;;;;;;5.18;2.63;;;9.60;99.90;;;;;;4942073;28;20169;-73
2023/12/31 04:19:03;;;;;;;3.95;2.42;;;9.60;99.90;;;;;;4947203;28;20515;-73
2023/12/31 04:21:28;;;;;;;5.40;2.05;;;9.60;99.90;;;;;;4949683;28;20357;-73
2023/12/31 04:23:54;;;;;;;2.92;1.80;;;9.50;99.90;;;;;;4951439;28;20035;-74
2023/12/31 04:26:20;;;;;;;5.55;2.10;;;9.60;99.90;;;;;;4938099;28;20028;-73
2023/12/31 04:28:45;;;;;;;4.85;2.17;;;9.50;99.90;;;;;;4935417;28;20028;-73
2023/12/31 04:31:11;;;;;;;4.03;2.05;;;9.60;99.90;;;;;;4947423;28;20038;-73
2023/12/31 04:33:36;;;;;;;4.35;2.10;;;9.50;99.90;;;;;;4950937;28;20521;-73
2023/12/31 04:36:03;;;;;;;3.47;2.08;;;9.60;99.90;;;;;;4950551;28;20074;-73
2023/12/31 04:38:29;;;;;;;3.78;1.83;;;9.60;99.90;;;;;;4947808;28;20471;-73
2023/12/31 04:40:55;;;;;;;2.58;2.03;;;9.60;99.90;;;;;;4934031;28;20034;-73
2023/12/31 04:43:20;;;;;;;6.80;2.30;;;9.60;99.90;;;;;;4947290;28;20023;-73
2023/12/31 04:45:46;;;;;;;4.25;2.00;;;9.60;99.90;;;;;;4944295;29;20032;-73
2023/12/31 04:48:11;;;;;;;2.40;1.80;;;9.60;99.90;;;;;;4945075;28;20714;-73
2023/12/31 04:50:37;;;;;;;3.53;1.80;;;9.60;99.90;;;;;;4946516;28;20031;-73
2023/12/31 04:53:03;;;;;;;6.70;2.05;;;9.60;99.90;;;;;;4939948;28;20031;-73
2023/12/31 04:55:28;;;;;;;2.85;1.92;;;9.60;99.90;;;;;;4949824;28;20020;-73
2023/12/31 04:57:54;;;;;;;2.47;1.75;;;9.60;99.90;;;;;;4949861;28;20032;-73
2023/12/31 05:00:19;;;;;;;4.70;1.85;;;9.60;99.90;;;;;;4949755;28;20080;-73
2023/12/31 05:02:45;;;;;;;2.97;1.80;;;9.60;99.90;;;;;;4950129;28;20020;-73
2023/12/31 05:05:11;;;;;;;2.05;1.70;;;9.60;99.90;;;;;;4941251;28;20016;-73
2023/12/31 05:07:36;;;;;;;2.08;1.80;;;9.60;99.90;;;;;;4943063;28;20493;-73
2023/12/31 05:10:02;;;;;;;3.13;1.77;;;9.60;99.90;;;;;;4949807;28;20267;-73
2023/12/31 05:12:28;;;;;;;2.72;1.90;;;9.60;99.90;;;;;;4949457;28;20038;-73
2023/12/31 05:14:53;;;;;;;3.50;1.90;;;9.50;99.90;;;;;;4947694;28;20050;-73
2023/12/31 05:17:19;;;;;;;4.60;2.00;;;9.50;99.90;;;;;;5014145;28;20055;-73
2023/12/31 05:19:45;;;;;;;3.45;1.92;;;9.50;99.90;;;;;;4949140;28;20019;-73
2023/12/31 05:22:11;;;;;;;4.95;2.42;;;9.50;99.90;;;;;;4949995;28;20093;-73
2023/12/31 05:24:37;;;;;;;3.25;2.10;;;9.50;99.90;;;;;;4949924;28;20035;-73
2023/12/31 05:27:03;;;;;;;3.60;2.05;;;9.50;99.90;;;;;;4950355;28;20035;-73
2023/12/31 05:29:28;;;;;;;3.72;2.05;;;9.50;99.90;;;;;;4945029;28;20042;-73
2023/12/31 05:31:54;;;;;;;3.63;2.30;;;9.50;99.90;;;;;;5016985;28;20023;-73
2023/12/31 05:34:19;;;;;;;2.88;2.03;;;9.50;99.90;;;;;;4943136;28;20103;-73
2023/12/31 05:36:45;;;;;;;4.00;2.30;;;9.50;99.90;;;;;;4933979;28;20027;-73
2023/12/31 05:39:11;;;;;;;4.70;2.40;;;9.50;99.90;;;;;;5030820;28;20062;-73
2023/12/31 05:41:37;;;;;;;5.50;2.08;;;9.50;99.90;;;;;;4938430;28;20028;-73
2023/12/31 05:44:03;;;;;;;3.22;2.05;;;9.50;99.90;;;;;;4931589;28;20024;-73
2023/12/31 05:46:29;;;;;;;4.63;2.30;;;9.50;99.90;;;;;;4945556;28;20445;-73
2023/12/31 05:48:55;;;;;;;4.70;2.08;;;9.50;99.90;;;;;;4950230;28;20134;-73
2023/12/31 05:51:21;;;;;;;4.43;2.20;;;9.50;99.90;;;;;;4947517;28;20090;-73
2023/12/31 05:53:47;;;;;;;5.68;2.35;;;9.50;99.90;;;;;;4938395;28;20031;-73
2023/12/31 05:56:13;;;;;;;3.17;2.20;;;9.50;99.90;;;;;;4946253;28;20038;-73
2023/12/31 05:58:42;;;;;;;2.83;1.98;;;9.50;99.90;;;;;;4937937;28;20430;-73
2023/12/31 06:01:08;;;;;;;2.70;2.10;;;9.60;99.90;;;;;;5012687;28;20023;-73
2023/12/31 06:03:33;;;;;;;4.93;2.45;;;9.60;99.90;;;;;;4938075;28;20023;-73
2023/12/31 06:05:59;;;;;;;4.97;2.53;;;9.60;99.90;;;;;;4938986;28;20074;-73
2023/12/31 06:08:25;;;;;;;2.75;2.42;;;9.60;99.90;;;;;;4949455;28;20027;-73
2023/12/31 06:10:51;;;;;;;5.57;2.40;;;9.60;99.90;;;;;;4949303;28;20357;-73
2023/12/31 06:13:16;;;;;;;5.40;2.47;;;9.60;99.90;;;;;;4949372;28;20027;-73
2023/12/31 06:15:42;;;;;;;3.95;2.40;;;9.60;99.90;;;;;;4948663;28;20019;-73
2023/12/31 06:18:09;;;;;;;3.35;2.40;;;9.60;99.90;;;;;;4939684;28;20086;-73
2023/12/31 06:20:35;;;;;;;4.05;2.45;;;9.60;99.90;;;;;;4947807;28;20027;-73
2023/12/31 06:23:00;;;;;;;5.95;2.60;;;9.60;99.90;;;;;;4952189;28;20488;-73
2023/12/31 06:25:26;;;;;;;5.43;2.67;;;9.70;99.90;;;;;;5011947;28;20035;-73
2023/12/31 06:27:52;;;;;;;8.77;2.58;;;9.70;99.90;;;;;;4947532;28;20042;-73
2023/12/31 06:30:18;;;;;;;6.13;2.45;;;9.70;99.90;;;;;;4941550;28;20019;-73
2023/12/31 06:32:43;;;;;;;5.60;2.33;;;9.70;99.90;;;;;;4944496;28;20028;-74
2023/12/31 06:35:09;;;;;;;3.08;2.70;;;9.60;99.90;;;;;;4947970;28;20364;-74
2023/12/31 06:37:34;;;;;;;2.90;2.30;;;9.70;99.90;;;;;;4943468;28;20051;-73
2023/12/31 06:40:00;;;;;;;3.67;2.53;;;9.70;99.90;;;;;;4944887;28;20369;-74
2023/12/31 06:42:25;;;;;;;4.30;2.72;;;9.70;99.90;;;;;;4940601;28;20538;-74
2023/12/31 06:44:51;;;;;;;3.67;2.67;;;9.70;99.90;;;;;;4945513;28;20019;-74
2023/12/31 06:47:17;;;;;;;5.20;2.42;;;9.70;99.90;;;;;;4948352;28;20058;-74
2023/12/31 06:49:42;;;;;;;4.22;2.72;;;9.70;99.90;;;;;;4948530;28;20027;-74
2023/12/31 06:52:08;;;;;;;4.13;2.67;;;9.70;99.90;;;;;;4948667;28;20025;-74
2023/12/31 06:54:34;;;;;;;2.80;2.45;;;9.70;99.90;;;;;;4948440;28;20031;-74
2023/12/31 06:56:59;;;;;;;4.10;2.47;;;9.80;99.90;;;;;;4948556;28;20063;-74
2023/12/31 06:59:25;;;;;;;3.97;2.70;;;9.80;99.90;;;;;;5012650;28;20024;-74
2023/12/31 07:01:50;;;;;;;4.10;2.50;;;9.80;99.90;;;;;;4945300;28;20485;-73
2023/12/31 07:04:16;;;;;;;5.55;2.70;;;9.80;99.90;;;;;;4939978;28;20703;-74
2023/12/31 07:06:42;;;;;;;5.22;2.63;;;9.80;99.90;;;;;;4942729;29;20476;-74
2023/12/31 07:09:08;;;;;;;4.68;2.50;;;9.70;99.90;;;;;;4940734;28;20024;-73
2023/12/31 07:11:33;;;;;;;3.83;3.08;;;9.70;99.90;;;;;;4940985;29;20047;-74
2023/12/31 07:13:59;;;;;;;3.70;2.60;;;9.70;99.90;;;;;;4937550;28;20042;-74
2023/12/31 07:16:25;;;;;;;3.08;2.20;;;9.70;99.90;;;;;;4947624;28;20066;-74
2023/12/31 07:18:50;;;;;;;3.72;2.90;;;9.70;99.90;;;;;;4947187;28;20058;-73
2023/12/31 07:21:23;;;;;;;3.10;2.65;;;9.70;99.90;;;;;;4948270;28;20491;-73
2023/12/31 07:23:48;;;;;;;5.65;2.65;;;9.70;99.90;;;;;;4942542;28;20150;-74
2023/12/31 07:26:24;;;;;;;5.60;2.83;;;9.60;99.90;;;;;;4958489;28;20021;-73
2023/12/31 07:28:49;;;;;;;4.78;2.70;;;9.60;99.90;;;;;;4941349;28;20043;-74
2023/12/31 07:31:15;;;;;;;3.95;2.80;;;9.60;99.90;;;;;;4946927;29;20035;-74
2023/12/31 07:33:40;;;;;;;6.38;2.70;;;9.60;99.90;;;;;;5030457;28;20020;-74
2023/12/31 07:36:06;;;;;;;6.05;3.22;;;9.50;99.90;;;;;;4948127;28;20037;-73
2023/12/31 07:38:32;;;;;;;3.53;2.80;;;9.60;99.90;;;;;;4947304;28;20027;-74
2023/12/31 07:40:57;;;;;;;5.97;3.22;;;9.60;99.90;;;;;;4948672;28;20020;-74
2023/12/31 07:43:23;;;;;;;5.43;2.78;;;9.60;99.90;;;;;;4939115;28;20337;-74
2023/12/31 07:45:48;;;;;;;4.18;2.72;;;9.50;99.90;;;;;;4946311;28;20035;-74
2023/12/31 07:48:14;;;;;;;4.28;2.80;;;9.50;99.90;;;;;;4949684;28;20028;-74
2023/12/31 07:50:40;;;;;;;6.05;3.03;;;9.60;99.90;;;;;;4949240;29;20046;-74
2023/12/31 07:53:05;;;;;;;4.90;2.90;;;9.50;99.90;;;;;;5009479;28;20039;-74
2023/12/31 07:55:31;;;;;;;5.68;3.28;;;9.50;99.90;;;;;;4949411;28;20024;-74
2023/12/31 07:57:56;;;;;;;3.67;2.90;;;9.50;99.90;;;;;;4945896;29;20019;-74
2023/12/31 08:00:22;;;;;;;3.75;3.00;;;9.50;99.90;;;;;;4950725;28;20435;-74
2023/12/31 08:02:47;;;;;;;3.97;2.95;;;9.50;99.90;;;;;;4949501;28;20019;-74
2023/12/31 08:05:13;;;;;;;5.90;2.85;;;9.50;99.90;;;;;;4948608;28;20562;-71
2023/12/31 08:07:39;;;;;;;5.60;2.65;;;9.50;99.90;;;;;;5032342;28;20035;-72
2023/12/31 08:10:05;;;;;;;4.13;2.83;;;9.50;99.90;;;;;;4950493;28;20110;-73
2023/12/31 08:12:31;;;;;;;4.13;2.53;;;9.50;99.90;;;;;;4950024;28;20027;-73
2023/12/31 08:14:56;;;;;;;2.80;2.17;;;9.50;99.90;;;;;;4951705;28;20034;-72
2023/12/31 08:17:23;;;;;;;4.72;2.28;;;9.50;99.90;;;;;;4947996;28;20504;-73
2023/12/31 08:19:49;;;;;;;6.13;2.25;;;9.50;99.90;;;;;;4950969;28;20088;-73
2023/12/31 08:22:14;;;;;;;2.90;1.60;;;9.50;99.90;;;;;;4950663;28;20023;-73
2023/12/31 08:24:40;;;;;;;4.10;1.45;;;9.50;99.90;;;;;;4950149;28;20575;-73
2023/12/31 08:27:05;;;;;;;3.15;1.38;;;9.40;99.90;;;;;;4949915;28;20032;-73
2023/12/31 08:29:31;;;;;;;1.60;0.80;;;9.40;99.90;;;;;;4946249;28;20042;-73
2023/12/31 08:31:57;;;;;;;4.45;1.02;;;9.30;99.90;;;;;;4948337;28;20024;-73
2023/12/31 08:34:22;;;;;;;2.83;1.02;;;9.30;99.90;;;;;;4950486;28;20197;-73
2023/12/31 08:36:48;;;;;;;2.25;0.93;;;9.20;99.90;;;;;;4944560;28;20042;-73
2023/12/31 08:39:14;;;;;;;4.10;1.15;;;9.20;99.90;;;;;;4950622;28;20204;-73
2023/12/31 08:41:40;;;;;;;3.45;1.10;;;9.20;99.90;;;;;;4950065;28;20027;-73
2023/12/31 08:44:05;;;;;;;4.43;1.70;;;9.20;99.90;;;;;;4949424;28;20035;-73
2023/12/31 08:46:31;;;;;;;4.43;1.50;;;9.10;99.90;;;;;;4948645;28;20059;-74
2023/12/31 08:48:57;;;;;;;5.53;1.30;;;9.10;99.90;;;;;;4948945;29;20032;-73
2023/12/31 08:51:23;;;;;;;6.03;1.45;;;9.10;99.90;;;;;;4948151;29;20043;-73
2023/12/31 08:53:48;;;;;;;3.85;1.48;;;9.10;99.90;;;;;;4948372;29;20031;-73
2023/12/31 08:56:14;;;;;;;10.60;1.40;;;9.10;99.90;;;;;;4943657;28;20031;-74
2023/12/31 08:58:39;;;;;;;4.95;1.27;;;9.10;99.90;;;;;;4950572;28;20361;-74
2023/12/31 09:01:05;;;;;;;2.83;1.10;;;9.10;99.90;;;;;;4949154;28;20035;-74
2023/12/31 09:03:31;;;;;;;4.32;0.90;;;9.10;99.90;;;;;;4937284;28;20066;-74
2023/12/31 09:05:56;;;;;;;5.35;1.00;;;9.10;99.90;;;;;;4946238;28;20073;-74
2023/12/31 09:08:22;;;;;;;3.40;1.10;;;9.10;99.90;;;;;;4947114;28;20050;-74
2023/12/31 09:10:48;;;;;;;6.70;1.45;;;9.10;99.90;;;;;;5028273;28;20396;-75
2023/12/31 09:13:14;;;;;;;3.95;1.00;;;9.10;99.90;;;;;;4948420;28;20035;-73
2023/12/31 09:15:42;;;;;;;8.35;1.00;;;9.10;99.90;;;;;;4946445;29;20036;-74
2023/12/31 09:18:08;;;;;;;3.55;1.05;;;9.10;99.90;;;;;;4941597;28;20063;-74
2023/12/31 09:20:33;;;;;;;3.65;1.13;;;9.10;99.90;;;;;;4945821;28;20556;-74
2023/12/31 09:22:59;;;;;;;1.05;0.82;;;9.10;99.90;;;;;;4936619;28;20028;-75
2023/12/31 09:25:25;;;;;;;2.58;0.90;;;9.10;99.90;;;;;;4950088;28;20027;-74
2023/12/31 09:27:51;;;;;;;4.63;1.33;;;9.10;99.90;;;;;;4937717;28;20028;-75
2023/12/31 09:30:16;;;;;;;3.17;1.05;;;9.20;99.90;;;;;;4949609;28;20020;-74
2023/12/31 09:32:45;;;;;;;5.03;1.10;;;9.20;99.90;;;;;;5013037;28;20024;-73
2023/12/31 09:35:11;;;;;;;4.93;1.02;;;9.20;99.90;;;;;;4949371;28;20051;-73
2023/12/31 09:37:36;;;;;;;2.50;1.10;;;9.30;99.90;;;;;;4950628;28;20101;-74
2023/12/31 09:40:03;;;;;;;3.33;0.90;;;9.30;99.90;;;;;;4945979;28;20019;-74
2023/12/31 09:42:36;;;;;;;2.67;1.00;;;9.30;99.90;;;;;;4950672;28;20023;-73
2023/12/31 09:45:04;;;;;;;2.88;1.30;;;9.40;99.90;;;;;;4950049;28;20047;-74
2023/12/31 09:47:32;;;;;;;3.20;1.00;;;9.40;99.90;;;;;;4950797;28;20377;-74
2023/12/31 09:49:58;;;;;;;3.55;1.00;;;9.40;99.90;;;;;;5015795;28;20023;-74
2023/12/31 09:52:26;;;;;;;2.38;1.15;;;9.50;99.90;;;;;;4942299;28;20027;-74
2023/12/31 09:54:54;;;;;;;4.30;1.20;;;9.60;99.90;;;;;;5016439;28;20034;-74
2023/12/31 09:57:20;;;;;;;2.10;0.82;;;9.60;99.90;;;;;;4944625;28;20375;-74
2023/12/31 09:59:48;;;;;;;3.85;1.10;;;9.60;99.90;;;;;;4944953;28;20137;-74
2023/12/31 10:02:24;;;;;;;3.33;1.10;;;9.60;99.90;;;;;;4941712;29;20019;-74
2023/12/31 10:04:53;;;;;;;2.67;0.90;;;9.60;99.90;;;;;;4946194;29;20434;-74
2023/12/31 10:07:20;;;;;;;2.97;0.95;;;9.50;99.90;;;;;;4946229;28;20080;-74
2023/12/31 10:09:46;;;;;;;2.17;1.17;;;9.50;99.90;;;;;;4949877;28;20031;-74
2023/12/31 10:12:12;;;;;;;2.55;1.15;;;9.50;99.90;;;;;;4947699;28;20016;-74
2023/12/31 10:14:38;;;;;;;3.45;1.08;;;9.50;99.90;;;;;;4940726;28;20019;-74
2023/12/31 10:17:10;;;;;;;2.53;1.05;;;9.50;99.90;;;;;;4949849;28;20055;-74
2023/12/31 10:19:35;;;;;;;2.65;0.90;;;9.50;99.90;;;;;;4936632;29;20023;-74
2023/12/31 10:22:05;;;;;;;2.85;1.20;;;9.50;99.90;;;;;;4943552;28;20016;-74
2023/12/31 10:24:31;;;;;;;3.22;1.27;;;9.40;99.90;;;;;;4942487;28;20465;-74
2023/12/31 10:27:00;;;;;;;1.73;1.10;;;9.40;99.90;;;;;;4943194;28;20023;-74
2023/12/31 10:29:26;;;;;;;2.42;1.10;;;9.40;99.90;;;;;;4948634;28;20484;-74
2023/12/31 10:31:52;;;;;;;1.88;1.25;;;9.40;99.90;;;;;;4941629;28;20028;-74
2023/12/31 10:34:18;;;;;;;1.83;1.10;;;9.40;99.90;;;;;;4946946;28;20038;-74
2023/12/31 10:36:45;;;;;;;3.83;1.33;;;9.30;99.90;;;;;;4945704;28;20024;-74
2023/12/31 10:39:28;;;;;;;4.18;1.25;;;9.30;99.90;;;;;;4942274;28;20046;-74
2023/12/31 10:41:58;;;;;;;1.90;1.10;;;9.30;99.90;;;;;;4946535;28;20034;-74
2023/12/31 10:44:25;;;;;;;2.47;1.50;;;9.30;99.90;;;;;;4946929;28;20023;-74
2023/12/31 10:46:56;;;;;;;5.07;1.52;;;9.30;99.90;;;;;;4940228;28;20110;-74
2023/12/31 10:49:22;;;;;;;2.63;1.17;;;9.30;99.90;;;;;;4946328;28;20054;-74
2023/12/31 10:51:51;;;;;;;2.35;1.20;;;9.30;99.90;;;;;;4943813;28;20027;-74
2023/12/31 10:54:30;;;;;;;3.30;1.30;;;9.30;99.90;;;;;;4949023;28;20491;-74
2023/12/31 10:56:57;;;;;;;1.92;1.20;;;9.20;99.90;;;;;;4942968;28;20038;-73
2023/12/31 10:59:25;;;;;;;2.75;1.25;;;9.10;99.90;;;;;;4945466;28;20034;-73
2023/12/31 11:01:52;;;;;;;2.05;1.00;;;9.00;99.90;;;;;;4942713;28;20036;-73
2023/12/31 11:04:21;;;;;;;2.75;0.90;;;8.90;99.90;;;;;;4938857;28;20040;-73
2023/12/31 11:06:47;;;;;;;3.72;0.90;;;8.90;99.90;;;;;;4944973;28;20051;-73
2023/12/31 11:09:14;;;;;;;2.22;1.00;;;8.80;99.90;;;;;;4938498;28;20031;-73
2023/12/31 11:11:41;;;;;;;3.47;0.98;;;8.80;99.90;;;;;;4949514;29;20035;-71
2023/12/31 11:14:10;;;;;;;3.90;1.30;;;8.80;99.90;;;;;;4941012;28;20030;-72
2023/12/31 11:16:35;;;;;;;4.80;1.30;;;8.80;99.90;;;;;;4949818;28;20067;-72
2023/12/31 11:19:16;;;;;;;7.85;2.20;;;8.70;99.90;;;;;;4947765;28;20036;-73
2023/12/31 11:22:14;;;;;;;5.57;2.10;;;8.70;99.90;;;;;;4945995;28;20508;-72
2023/12/31 11:24:39;;;;;;;3.22;1.20;;;8.70;99.90;;;;;;4950352;28;20031;-72
2023/12/31 11:27:16;;;;;;;4.47;1.30;;;8.70;99.90;;;;;;4942980;28;20042;-72
2023/12/31 11:29:49;;;;;;;6.20;1.30;;;8.70;99.90;;;;;;4942025;28;20046;-73
2023/12/31 11:32:17;;;;;;;5.90;1.42;;;8.70;99.90;;;;;;4947671;28;20063;-72
2023/12/31 11:34:42;;;;;;;8.80;1.48;;;8.80;99.90;;;;;;4951805;28;20027;-72
2023/12/31 11:37:08;;;;;;;11.20;1.17;;;8.80;99.90;;;;;;4950727;28;20019;-72
2023/12/31 11:39:34;;;;;;;6.18;1.42;;;8.80;99.90;;;;;;4945081;28;20042;-73
2023/12/31 11:42:11;;;;;;;9.23;1.52;;;8.80;99.90;;;;;;4943700;28;20019;-73
2023/12/31 11:44:41;;;;;;;8.05;3.00;;;8.80;99.90;;;;;;4950792;28;20051;-73
2023/12/31 11:47:13;;;;;;;10.20;1.63;;;8.80;99.90;;;;;;4950035;28;20024;-73
2023/12/31 11:49:50;;;;;;;7.50;1.80;;;8.80;99.90;;;;;;4950986;28;20039;-72
2023/12/31 11:52:20;;;;;;;7.57;1.52;;;8.90;99.90;;;;;;4947323;28;20197;-73
2023/12/31 11:54:45;;;;;;;10.73;1.75;;;8.90;99.90;;;;;;4950303;28;20027;-72
2023/12/31 11:57:13;;;;;;;5.90;1.40;;;8.90;99.90;;;;;;4950747;28;20442;-73
2023/12/31 11:59:42;;;;;;;5.82;1.40;;;9.00;99.90;;;;;;4950718;28;20031;-73
2023/12/31 12:02:07;;;;;;;9.00;1.70;;;9.00;99.90;;;;;;4941130;28;20031;-73
2023/12/31 12:04:34;;;;;;;6.43;1.73;;;9.00;99.90;;;;;;4950510;29;20024;-73
2023/12/31 12:07:00;;;;;;;8.77;1.48;;;9.10;99.90;;;;;;4940162;28;20032;-73
2023/12/31 12:09:29;;;;;;;9.88;2.53;;;9.20;99.90;;;;;;4950322;28;20113;-73
2023/12/31 12:12:00;;;;;;;8.00;1.90;;;9.20;99.90;;;;;;4950659;28;20034;-73
2023/12/31 12:14:26;;;;;;;9.90;2.40;;;9.20;99.90;;;;;;4935420;28;20461;-73
2023/12/31 12:16:53;;;;;;;15.13;3.50;;;9.30;99.90;;;;;;4938514;28;20052;-73
2023/12/31 12:19:23;;;;;;;7.53;2.10;;;9.30;99.90;;;;;;4947413;28;20035;-73
2023/12/31 12:21:49;;;;;;;8.82;2.17;;;9.30;99.90;;;;;;4949496;28;20324;-73
2023/12/31 12:24:17;;;;;;;12.00;2.92;;;9.30;99.90;;;;;;4949712;28;20034;-73
2023/12/31 12:26:43;;;;;;;11.82;2.90;;;9.20;99.90;;;;;;4947068;28;20012;-72
2023/12/31 12:29:10;;;;;;;11.15;2.10;;;9.20;99.90;;;;;;4950243;28;20024;-73
2023/12/31 12:31:36;;;;;;;7.55;1.90;;;9.20;99.90;;;;;;5015850;28;20032;-73
2023/12/31 12:34:04;;;;;;;10.65;2.10;;;9.20;99.90;;;;;;4950601;28;20067;-73
2023/12/31 12:36:30;;;;;;;8.02;2.25;;;9.10;99.90;;;;;;4949989;28;20547;-73
2023/12/31 12:39:02;;;;;;;9.00;1.75;;;9.10;99.90;;;;;;5017443;28;20046;-73
2023/12/31 12:41:30;;;;;;;15.30;3.75;;;9.10;99.90;;;;;;4950383;28;20043;-72
2023/12/31 12:44:00;;;;;;;11.52;2.78;;;9.20;99.90;;;;;;4940872;28;20380;-72
2023/12/31 12:46:33;;;;;;;8.85;2.35;;;9.20;99.90;;;;;;4948591;28;20039;-73
2023/12/31 12:48:59;;;;;;;8.68;2.28;;;9.20;99.90;;;;;;4947160;28;20435;-73
2023/12/31 12:51:26;;;;;;;9.50;2.42;;;9.30;99.90;;;;;;4949601;28;20024;-73